Wallingford, Connecticut
Current Conditions -  °F | °C
As of 1:53 PM on Friday 28 Nov 2014 (Local Time) from KMMK Reporting Station
Scattered Clouds Scattered Clouds  
Wind Chill: -3°   Ceiling: Unl
Heat Index:   Visibility: 10mi
Dew Point: -8°   Wind: 16mph
Humidity: 48%   Direction: 330°NNW
Pressure: 30.11"   Gusts: NA
Location:  41.46°N, 72.82°W
Report Text: KMMK 281853Z AUTO 33014KT 10SM SCT042 02/M08 A3011 RMK AO2 SLP199 T00221078 TSNO
Loading
Personal Weather Stations






























Interactive Weather Map New forecast layout! Learn more

10-Day Weather Forecast

Advertisements
Track Severe Weather on mobile